Trans Sea — 9HA2564 — position and weather

sailwx.info

Track history (hours):
 
Tides and Currents Weather Stations Pressure Air Temp Water Temp Dewpoint Dewpoint Depression Visibility Wind Speed Wind Dir Waves Ship Positions

Trans Sea

Last reported at 2015-Apr-27 21:07 UTC. Time now 2015-Apr-28 18:20 UTC.
Position N 36°52' E 013°56'.

Length 107 m; draft 4.8 m.

Type: Tanker. MMSI: 248887000.

Date/timePositionNaut miles runAvg speedWind from/ knotsBaromVisibWave heightAir tempDewpointWater temp
2015-Apr-27 21:07N 36°52' E 013°56'3312.8
2015-Apr-27 18:32N 36°39' E 014°34'  
2015-Apr-24 22:33N 40°45' E 028°37'1313.5
2015-Apr-24 21:33N 40°44' E 028°54'1414.1
2015-Apr-24 20:33N 40°45' E 029°13'1313.3
2015-Apr-24 19:33N 40°45' E 029°31'  
2015-Apr-20 18:24N 37°37' E 024°01'1113.2
2015-Apr-20 17:32N 37°38' E 023°46'1212.4
2015-Apr-20 16:33N 37°48' E 023°37'5 5.5
2015-Apr-20 15:33N 37°51' E 023°31'0 0.1
2015-Apr-20 14:34N 37°51' E 023°31'0 0.0
2015-Apr-20 13:34N 37°51' E 023°31'0 0.0
2015-Apr-20 12:34N 37°51' E 023°31'7 6.8
2015-Apr-20 11:34N 37°57' E 023°35'1 0.5
2015-Apr-20 10:28N 37°57' E 023°35'0 0.0
2015-Apr-20 09:31N 37°57' E 023°35'0 0.0
2015-Apr-20 08:31N 37°57' E 023°35'0 0.0
2015-Apr-20 07:31N 37°57' E 023°35'0 0.0
2015-Apr-20 06:25N 37°57' E 023°35'0 0.0
2015-Apr-20 05:31N 37°57' E 023°35'0 0.0
2015-Apr-20 04:22N 37°57' E 023°35'0 0.0
2015-Apr-20 03:31N 37°57' E 023°35'0 0.0
2015-Apr-20 02:19N 37°57' E 023°35'0 0.0
2015-Apr-20 01:31N 37°57' E 023°35'0 0.0
2015-Apr-20 00:28N 37°57' E 023°35'0 0.0
2015-Apr-19 23:22N 37°57' E 023°35'0 0.0
2015-Apr-19 22:31N 37°57' E 023°35'0 0.0
2015-Apr-19 21:28N 37°57' E 023°35'0 0.0
2015-Apr-19 20:31N 37°57' E 023°35'3 3.1
2015-Apr-19 19:32N 37°54' E 023°36'1 1.5
2015-Apr-19 18:33N 37°54' E 023°37'1312.6
2015-Apr-19 17:33N 37°42' E 023°44'1211.9
2015-Apr-19 16:31N 37°30' E 023°44'42411.5
2015-Apr-18 03:30N 36°33' E 014°57'2412.5
2015-Apr-18 01:34N 36°39' E 014°28'1312.8
2015-Apr-18 00:33N 36°45' E 014°14'1313.0
2015-Apr-17 23:33N 36°51' E 013°59'1312.9
2015-Apr-17 22:33N 36°57' E 013°45'1312.9
2015-Apr-17 21:33N 37°03' E 013°31'  
Track history (hours):
 
Tides and Currents Weather Stations Pressure Air Temp Water Temp Dewpoint Dewpoint Depression Visibility Wind Speed Wind Dir Waves Ship Positions

Trans Sea

Last reported at 2015-Apr-27 21:07 UTC. Time now 2015-Apr-28 18:20 UTC.
Position N 36°52' E 013°56'.

Length 107 m; draft 4.8 m.

Type: Tanker. MMSI: 248887000.

Date/timePositionNaut miles runAvg speedWind from/ knotsBaromVisibWave heightAir tempDewpointWater temp
2015-Apr-27 21:07N 36°52' E 013°56'3312.8
2015-Apr-27 18:32N 36°39' E 014°34'  
2015-Apr-24 22:33N 40°45' E 028°37'1313.5
2015-Apr-24 21:33N 40°44' E 028°54'1414.1
2015-Apr-24 20:33N 40°45' E 029°13'1313.3
2015-Apr-24 19:33N 40°45' E 029°31'  
2015-Apr-20 18:24N 37°37' E 024°01'1113.2
2015-Apr-20 17:32N 37°38' E 023°46'1212.4
2015-Apr-20 16:33N 37°48' E 023°37'5 5.5
2015-Apr-20 15:33N 37°51' E 023°31'0 0.1
2015-Apr-20 14:34N 37°51' E 023°31'0 0.0
2015-Apr-20 13:34N 37°51' E 023°31'0 0.0
2015-Apr-20 12:34N 37°51' E 023°31'7 6.8
2015-Apr-20 11:34N 37°57' E 023°35'1 0.5
2015-Apr-20 10:28N 37°57' E 023°35'0 0.0
2015-Apr-20 09:31N 37°57' E 023°35'0 0.0
2015-Apr-20 08:31N 37°57' E 023°35'0 0.0
2015-Apr-20 07:31N 37°57' E 023°35'0 0.0
2015-Apr-20 06:25N 37°57' E 023°35'0 0.0
2015-Apr-20 05:31N 37°57' E 023°35'0 0.0
2015-Apr-20 04:22N 37°57' E 023°35'0 0.0
2015-Apr-20 03:31N 37°57' E 023°35'0 0.0
2015-Apr-20 02:19N 37°57' E 023°35'0 0.0
2015-Apr-20 01:31N 37°57' E 023°35'0 0.0
2015-Apr-20 00:28N 37°57' E 023°35'0 0.0
2015-Apr-19 23:22N 37°57' E 023°35'0 0.0
2015-Apr-19 22:31N 37°57' E 023°35'0 0.0
2015-Apr-19 21:28N 37°57' E 023°35'0 0.0
2015-Apr-19 20:31N 37°57' E 023°35'3 3.1
2015-Apr-19 19:32N 37°54' E 023°36'1 1.5
2015-Apr-19 18:33N 37°54' E 023°37'1312.6
2015-Apr-19 17:33N 37°42' E 023°44'1211.9
2015-Apr-19 16:31N 37°30' E 023°44'42411.5
2015-Apr-18 03:30N 36°33' E 014°57'2412.5
2015-Apr-18 01:34N 36°39' E 014°28'1312.8
2015-Apr-18 00:33N 36°45' E 014°14'1313.0
2015-Apr-17 23:33N 36°51' E 013°59'1312.9
2015-Apr-17 22:33N 36°57' E 013°45'1312.9
2015-Apr-17 21:33N 37°03' E 013°31'  

Dump ship's entire track history